Baker, MT

12:12 PM MDT on August 29, 2014 (GMT -0600)
Dawson Community | Change Station
CLOSE
Current Station
Airport
Location: Glendive,
Elevation: 2457 ft
Nearby Weather Stations

Elev 2457 ft 47.14 °N, 104.81 °W | Updated 17 minutes ago

Mostly Cloudy
Mostly Cloudy
64 °F
Feels Like 64 °F
N
12
Wind Variable Wind from NNW
Gusts 16 mph

Today
High -- | Low -- °F
--% Chance of Precip.
Yesterday
High -- | Low -- °F
Precip. -- in
6:13 AM 7:41 PM
Waxing Crescent, 15% visible
Pressure 30.03 in
Visibility 10.0 miles
Clouds Few 2300 ft
Scattered Clouds 3000 ft
Mostly Cloudy 3600 ft
Dew Point 57 °F
Humidity 77%
Rainfall 0.19 in
Snow Depth Not available.
UV 4 out of 12
Pollen 9.10 out of 12
Air Quality Not available.
Flu Activity Not available.
METAR KGDV 291755Z AUTO 33010G14KT 10SM FEW023 SCT030 BKN036 18/14 A3003 RMK AO1 60004 10180 20140 52003

More Conditions Fewer Conditions

Pressure 30.03 in
Visibility 10.0 miles
Clouds Few 2300 ft
Scattered Clouds 3000 ft
Mostly Cloudy 3600 ft
Dew Point 57 °F
Humidity 77%
Rainfall 0.19 in
Snow Depth Not available.
UV 4 out of 12
Pollen 9.10 out of 12
Air Quality Not available.
Flu Activity Not available.
METAR KGDV 291755Z AUTO 33010G14KT 10SM FEW023 SCT030 BKN036 18/14 A3003 RMK AO1 60004 10180 20140 52003

More Conditions Fewer Conditions

10-Day Weather Forecast

Almanac

Astronomy

Aug. 29, 2014 Rise Set
Actual Time 6:13 AM MDT 7:41 PM MDT
Civil Twilight 5:42 AM MDT 8:12 PM MDT
Nautical Twilight 5:04 AM MDT 8:50 PM MDT
Astronomical Twilight 4:23 AM MDT 9:31 PM MDT
Moon 10:21 AM MDT 9:23 PM MDT
Length of Visible Light 14h 30m
Length of Day
13h 27m
Tomorrow will be 3m 9s shorter.
Waxing Crescent, 15% of the Moon is Illuminated
Today
Waxing Crescent
Sep 2
First Quarter
Sep 8
Full
Sep 15
Last Quarter
Sep 24
New

Today's Extremes

State Highs State Lows

Community

WunderPhotos

Upload Photos

1,748,309 photos uploaded!

Nearby

Snow Depth

Station Depth Elevation
Crystal Lake 1 in 6050 ft
Cole Creek 1 in 7850 ft
Burnt Mountain 0 in 5880 ft
Rocky Boy 0 in 4700 ft
White Mill 1 in 8700 ft

Earthquake Activity

City Distance Mag. Time & Date
No recent earthquake activity has been reported nearby.
Minimum magnitude displayed is 2.5.

Coastal Water Temperatures

Place Temperature
No Stations Reporting

Nearby Weather Stations